Latest Weather Observations for Yulara

IDD60801

Issued at 11:01 am CST Saturday 30 July 2016 (issued every 30 minutes, with the page automatically refreshed every 10 minutes)

About weather observations | Map of weather stations | Latest weather observations for NT | Other Formats
Station Details ID: 015635 Name: YULARA AIRPORT Lat: -25.19 Lon: 130.97 Height: 492.0 m
Data from the previous 72 hours. | See also: Recent months at Yulara
Date/Time
CST
Temp
°C
App
Temp
°C
Dew
Point
°C
Rel
Hum
%
Delta-T
°C
Wind Press
QNH
hPa
Press
MSL
hPa
Rain since
9am
mm
Dir  Spd
km/h
Gust
km/h
Spd
kts
Gust
kts
30/11:00am 18.2 15.7 1.3 32 7.7 SW 4 7 2 4 1022.7 1022.5 0.0
30/10:30am 16.4 13.9 1.3 36 6.8 SSE 4 7 2 4 1022.9 1022.7 0.0
30/10:00am 14.9 11.8 1.4 40 6.0 ESE 7 9 4 5 1023.0 1022.8 0.0
30/09:30am 12.5 9.5 2.1 49 4.6 SE 7 11 4 6 1022.9 1022.7 0.0
30/09:00am 9.9 6.1 1.8 57 3.5 S 11 15 6 8 1023.0 1022.8 0.0
30/08:30am 6.7 2.8 1.4 69 2.2 S 11 15 6 8 1022.8 1022.6 0.0
30/08:00am 4.3 -0.4 0.8 78 1.4 SSW 15 19 8 10 1022.5 1022.3 0.0
30/07:30am 3.3 -1.1 0.4 81 1.1 SSW 13 17 7 9 1022.2 1022.0 0.0
30/07:00am 3.2 -0.9 0.1 80 1.2 SSW 11 15 6 8 1021.9 1021.6 0.0
30/06:30am 3.2 -1.3 -0.1 79 1.3 S 13 15 7 8 1021.5 1021.2 0.0
30/06:00am 3.7 -0.3 0.2 78 1.4 S 11 15 6 8 1021.4 1021.1 0.0
30/05:30am 4.1 0.1 0.3 76 1.5 S 11 15 6 8 1021.1 1020.8 0.0
30/05:00am 5.0 1.1 0.9 75 1.6 S 11 15 6 8 1021.2 1020.9 0.0
30/04:30am 4.1 1.0 0.3 76 1.5 S 6 7 3 4 1021.2 1020.9 0.0
30/04:00am 3.8 1.9 0.3 78 1.4 CALM 0 0 0 0 1021.4 1021.1 0.0
30/03:30am 4.5 2.6 0.8 77 1.5 CALM 0 0 0 0 1021.5 1021.2 0.0
30/03:00am 4.8 2.9 0.8 75 1.6 CALM 0 0 0 0 1021.8 1021.5 0.0
30/02:30am 5.7 2.7 1.1 72 1.9 SSE 6 7 3 4 1022.0 1021.7 0.0
30/02:00am 6.0 3.0 0.8 69 2.1 S 6 7 3 4 1022.3 1022.1 0.0
30/01:30am 5.9 2.7 0.7 69 2.1 SSE 7 7 4 4 1022.2 1022.0 0.0
30/01:00am 6.9 3.3 0.8 65 2.5 SSE 9 9 5 5 1022.4 1022.2 0.0
30/12:30am 7.8 4.8 1.0 62 2.8 SSE 6 9 3 5 1022.7 1022.5 0.0
30/12:00am 9.0 5.9 1.4 59 3.2 SSE 7 9 4 5 1022.9 1022.7 0.0
 
Date/Time
CST
Temp
°C
App
Temp
°C
Dew
Point
°C
Rel
Hum
%
Delta-T
°C
Wind Press
QNH
hPa
Press
MSL
hPa
Rain since
9am
mm
Dir  Spd
km/h
Gust
km/h
Spd
kts
Gust
kts
29/11:30pm 9.2 6.2 0.9 56 3.5 SE 6 7 3 4 1023.0 1022.8 0.0
29/11:00pm 10.1 6.8 0.4 51 4.1 E 7 9 4 5 1023.1 1022.9 0.0
29/10:30pm 10.7 7.2 1.0 51 4.1 ESE 9 11 5 6 1023.1 1022.9 0.0
29/10:00pm 10.3 6.7 0.6 51 4.1 ESE 9 9 5 5 1023.0 1022.8 0.0
29/09:30pm 9.6 6.1 1.0 55 3.6 ESE 9 9 5 5 1022.8 1022.6 0.0
29/09:00pm 10.8 7.8 0.8 50 4.2 SE 6 9 3 5 1022.5 1022.3 0.0
29/08:30pm 12.5 9.2 0.0 42 5.3 ESE 7 7 4 4 1022.2 1022.0 0.0
29/08:00pm 13.5 10.2 -0.2 39 5.8 SE 7 9 4 5 1022.0 1021.7 0.0
29/07:30pm 14.5 11.2 0.4 38 6.1 ESE 7 7 4 4 1021.6 1021.3 0.0
29/07:00pm 15.8 12.2 0.8 36 6.7 ESE 9 9 5 5 1021.5 1021.2 0.0
29/06:30pm 18.7 14.9 -0.7 27 8.6 ESE 9 9 5 5 1021.2 1020.9 0.0
29/06:00pm 21.1 17.2 -1.4 22 10.0 E 9 13 5 7 1021.1 1020.8 0.0
29/05:30pm 21.6 18.1 -1.0 22 10.2 E 7 11 4 6 1021.1 1020.8 0.0
29/05:00pm 22.0 18.7 -1.3 21 10.5 ENE 6 11 3 6 1021.2 1020.9 0.0
29/04:30pm 22.1 19.6 -1.2 21 10.5 ESE 2 9 1 5 1021.3 1021.0 0.0
29/04:00pm 21.8 17.5 -1.5 21 10.4 NE 11 19 6 10 1021.3 1021.0 0.0
29/03:30pm 21.2 17.2 -2.0 21 10.2 NNE 9 15 5 8 1021.5 1021.2 0.0
29/03:00pm 21.7 18.1 0.3 24 9.9 NNE 9 15 5 8 1021.5 1021.2 0.0
29/02:30pm 21.0 17.5 1.3 27 9.2 NNE 9 15 5 8 1022.0 1021.7 0.0
29/02:00pm 20.3 16.6 0.2 26 9.2 ENE 9 15 5 8 1022.5 1022.3 0.0
29/01:30pm 19.6 16.3 0.1 27 8.8 ESE 7 15 4 8 1022.9 1022.7 0.0
29/01:00pm 18.7 14.4 1.2 31 8.0 E 13 19 7 10 1023.5 1023.2 0.0
29/12:30pm 18.0 14.2 1.5 33 7.6 E 11 17 6 9 1024.3 1024.1 0.0
29/12:00pm 16.7 12.6 2.3 38 6.6 E 13 19 7 10 1024.9 1024.7 0.0
29/11:30am 16.4 12.4 3.1 41 6.2 E 13 19 7 10 1025.5 1025.2 0.0
29/11:00am 16.1 12.2 3.5 43 5.9 E 13 20 7 11 1026.0 1025.8 0.0
29/10:30am 15.2 10.1 3.0 44 5.6 ENE 19 26 10 14 1026.3 1026.1 0.0
29/10:00am 14.0 9.1 2.3 45 5.3 E 17 26 9 14 1026.3 1026.1 0.0
29/09:30am 12.7 8.7 2.6 50 4.5 E 13 19 7 10 1026.1 1025.9 0.0
29/09:00am 10.3 7.5 2.9 60 3.3 E 7 11 4 6 1026.1 1025.9 0.0
29/08:30am 8.2 5.3 2.7 68 2.4 SE 7 11 4 6 1026.1 1025.9 0.0
29/08:00am 7.0 4.1 2.5 73 1.9 SSE 7 9 4 5 1025.9 1025.7 0.0
29/07:30am 6.9 3.6 2.4 73 1.9 SE 9 11 5 6 1025.8 1025.6 0.0
29/07:00am 6.8 3.5 2.3 73 1.9 SSE 9 11 5 6 1025.6 1025.3 0.0
29/06:30am 7.3 4.0 2.4 71 2.1 SE 9 11 5 6 1025.2 1025.0 0.0
29/06:00am 7.2 3.9 2.5 72 2.0 SSE 9 13 5 7 1024.9 1024.7 0.0
29/05:30am 7.1 3.8 2.2 71 2.1 SE 9 13 5 7 1024.5 1024.3 0.0
29/05:00am 7.4 3.7 2.3 70 2.2 SE 11 13 6 7 1024.6 1024.4 0.0
29/04:30am 7.5 4.2 2.2 69 2.2 SSE 9 11 5 6 1024.9 1024.7 0.0
29/04:00am 7.9 4.6 2.2 67 2.4 SE 9 13 5 7 1024.5 1024.3 0.0
29/03:30am 7.9 4.2 2.4 68 2.3 SSE 11 13 6 7 1024.7 1024.5 0.0
29/03:00am 8.3 4.9 2.1 65 2.6 SE 9 13 5 7 1024.6 1024.4 0.0
29/02:30am 8.7 5.0 2.1 63 2.8 ESE 11 15 6 8 1024.7 1024.5 0.0
29/02:00am 8.0 4.2 1.8 65 2.6 SSE 11 13 6 7 1025.5 1025.2 0.0
29/01:30am 7.4 4.0 1.9 68 2.3 SSE 9 11 5 6 1025.8 1025.6 0.0
29/01:00am 7.8 4.0 1.6 65 2.6 SSE 11 13 6 7 1025.6 1025.3 0.0
29/12:30am 8.2 3.9 1.1 61 2.9 SE 13 15 7 8 1025.3 1025.1 0.0
29/12:00am 9.0 5.5 1.4 59 3.2 ESE 9 11 5 6 1025.7 1025.5 0.0
 
Date/Time
CST
Temp
°C
App
Temp
°C
Dew
Point
°C
Rel
Hum
%
Delta-T
°C
Wind Press
QNH
hPa
Press
MSL
hPa
Rain since
9am
mm
Dir  Spd
km/h
Gust
km/h
Spd
kts
Gust
kts
28/11:30pm 9.5 6.0 1.2 56 3.5 SE 9 13 5 7 1026.1 1025.9 0.0
28/11:00pm 9.7 5.8 1.1 55 3.6 SE 11 13 6 7 1026.2 1026.0 0.0
28/10:30pm 11.1 7.2 1.4 51 4.2 ESE 11 15 6 8 1026.2 1026.0 0.0
28/10:00pm 10.3 6.7 0.9 52 4.0 ESE 9 11 5 6 1026.2 1026.0 0.0
28/09:30pm 11.2 7.3 0.9 49 4.4 SE 11 13 6 7 1026.2 1026.0 0.0
28/09:00pm 11.6 7.7 1.0 48 4.5 SE 11 13 6 7 1025.9 1025.7 0.0
28/08:30pm 13.0 9.0 0.7 43 5.3 ESE 11 13 6 7 1025.7 1025.5 0.0
28/08:00pm 13.4 9.4 0.8 42 5.5 SE 11 13 6 7 1025.5 1025.2 0.0
28/07:30pm 14.1 10.1 0.7 40 5.8 SE 11 13 6 7 1025.2 1025.0 0.0
28/07:00pm 15.2 11.6 0.6 37 6.4 SE 9 11 5 6 1024.9 1024.7 0.0
28/06:30pm 16.8 12.9 0.9 34 7.1 SE 11 13 6 7 1024.7 1024.5 0.0
28/06:00pm 19.1 14.4 1.1 30 8.2 ESE 15 20 8 11 1024.5 1024.3 0.0
28/05:30pm 20.0 14.8 -0.1 26 9.1 E 17 24 9 13 1024.5 1024.3 0.0
28/05:00pm 20.2 15.0 0.1 26 9.2 E 17 24 9 13 1024.4 1024.2 0.0
28/04:30pm 20.5 15.0 0.4 26 9.2 E 19 24 10 13 1024.6 1024.4 0.0
28/04:00pm 20.0 14.9 0.5 27 8.9 ESE 17 22 9 12 1024.7 1024.5 0.0
28/03:30pm 20.5 15.5 1.4 28 8.9 E 17 24 9 13 1024.9 1024.7 0.0
28/03:00pm 20.3 15.4 1.7 29 8.7 ENE 17 26 9 14 1025.3 1025.1 0.0
28/02:30pm 19.2 13.6 1.2 30 8.3 E 20 28 11 15 1025.8 1025.6 0.0
28/02:00pm 19.5 14.5 1.5 30 8.4 ESE 17 30 9 16 1026.4 1026.2 0.0
28/01:30pm 18.5 12.9 1.5 32 7.8 E 20 28 11 15 1026.8 1026.6 0.0
28/01:00pm 17.5 11.6 1.5 34 7.3 ENE 22 30 12 16 1027.2 1027.0 0.0
28/12:30pm 17.1 10.8 1.5 35 7.1 E 24 32 13 17 1027.8 1027.6 0.0
28/12:00pm 16.6 10.4 1.9 37 6.7 E 24 33 13 18 1028.5 1028.3 0.0
28/11:30am 15.4 9.4 3.2 44 5.7 E 24 32 13 17 1028.9 1028.7 0.0
28/11:00am 15.0 9.6 4.4 49 5.1 E 22 30 12 16 1029.3 1029.2 0.0
28/10:30am 14.2 8.0 4.2 51 4.7 E 26 35 14 19 1029.6 1029.5 0.0
28/10:00am 13.2 8.2 4.4 55 4.1 E 20 30 11 16 1030.3 1030.1 0.0
28/09:30am 11.7 7.2 4.4 61 3.4 E 17 24 9 13 1030.3 1030.1 0.0
28/09:00am 10.0 5.9 4.4 68 2.5 ESE 15 20 8 11 1030.1 1029.9 0.0
28/08:30am 8.7 5.0 4.3 74 2.0 ESE 13 19 7 10 1029.6 1029.5 0.0
28/08:00am 6.7 2.9 3.7 81 1.3 SE 13 17 7 9 1028.9 1028.7 0.0
28/07:30am 5.8 1.9 3.3 84 1.1 SE 13 19 7 10 1028.6 1028.4 0.0
28/07:00am 5.6 1.6 3.1 84 1.1 SE 13 17 7 9 1028.2 1028.0 0.0
28/06:30am 5.7 1.8 3.2 84 1.1 SE 13 15 7 8 1028.0 1027.8 0.0
28/06:00am 6.0 2.1 3.3 83 1.2 SE 13 17 7 9 1027.6 1027.4 0.0
28/05:30am 6.2 2.7 3.4 82 1.2 SE 11 15 6 8 1027.3 1027.2 0.0
28/05:00am 6.4 2.5 3.2 80 1.4 SE 13 17 7 9 1027.2 1027.0 0.0
28/04:30am 6.6 2.7 3.2 79 1.5 SE 13 17 7 9 1027.3 1027.2 0.0
28/04:00am 6.7 2.7 3.1 78 1.6 SE 13 15 7 8 1027.4 1027.3 0.0
28/03:30am 7.1 3.2 3.2 76 1.7 SE 13 15 7 8 1027.0 1026.8 0.0
28/03:00am 7.5 3.6 3.2 74 1.9 SE 13 15 7 8 1026.8 1026.6 0.0
28/02:30am 7.7 3.8 3.2 73 2.0 SE 13 15 7 8 1026.8 1026.6 0.0
28/02:00am 7.9 3.9 3.0 71 2.1 SE 13 17 7 9 1027.1 1026.9 0.0
28/01:30am 8.1 4.1 3.0 70 2.2 SSE 13 15 7 8 1027.6 1027.4 0.0
28/01:00am 7.7 4.0 2.6 70 2.2 SSE 11 13 6 7 1027.2 1027.0 0.0
28/12:30am 8.1 4.8 2.6 68 2.4 SE 9 11 5 6 1027.2 1027.0 0.0
28/12:00am 8.7 5.4 2.5 65 2.7 SE 9 9 5 5 1027.1 1026.9 0.0
 
Date/Time
CST
Temp
°C
App
Temp
°C
Dew
Point
°C
Rel
Hum
%
Delta-T
°C
Wind Press
QNH
hPa
Press
MSL
hPa
Rain since
9am
mm
Dir  Spd
km/h
Gust
km/h
Spd
kts
Gust
kts
27/11:30pm 9.4 6.1 2.5 62 3.0 SE 9 11 5 6 1027.2 1027.0 0.0
27/11:00pm 10.4 6.7 2.5 58 3.5 ESE 11 15 6 8 1027.3 1027.2 0.0
27/10:30pm 10.9 7.6 2.2 55 3.8 ESE 9 13 5 7 1027.2 1027.0 0.0
27/10:00pm 12.2 8.5 2.4 51 4.4 ESE 11 13 6 7 1027.0 1026.8 0.0
27/09:30pm 13.1 9.4 2.6 49 4.7 E 11 15 6 8 1027.0 1026.8 0.0
27/09:00pm 13.6 10.0 2.8 48 4.9 E 11 15 6 8 1027.0 1026.8 0.0
27/08:30pm 14.4 10.8 2.9 46 5.3 E 11 15 6 8 1027.0 1026.8 0.0
27/08:00pm 14.8 10.9 3.3 46 5.4 ESE 13 17 7 9 1026.9 1026.7 0.0
27/07:30pm 15.5 11.5 2.7 42 5.9 ESE 13 15 7 8 1026.7 1026.5 0.0
27/07:00pm 16.6 12.9 2.2 38 6.6 E 11 13 6 7 1026.6 1026.4 0.0
27/06:30pm 17.8 13.3 2.2 35 7.2 ESE 15 19 8 10 1026.3 1026.1 0.0
27/06:00pm 19.1 13.8 1.6 31 8.1 ESE 19 28 10 15 1026.1 1025.9 0.0
27/05:30pm 19.8 14.9 1.7 30 8.4 ESE 17 24 9 13 1026.0 1025.8 0.0
27/05:00pm 20.5 15.8 0.9 27 9.1 ESE 15 24 8 13 1025.9 1025.7 0.0
27/04:30pm 20.1 14.8 -0.5 25 9.2 ESE 17 26 9 14 1025.7 1025.5 0.0
27/04:00pm 20.7 15.4 -0.6 24 9.6 ESE 17 30 9 16 1025.7 1025.5 0.0
27/03:30pm 19.8 14.9 -0.2 26 9.0 ESE 15 24 8 13 1025.6 1025.3 0.0
27/03:00pm 19.8 15.1 0.8 28 8.7 ESE 15 20 8 11 1025.7 1025.5 0.0
27/02:30pm 19.5 14.7 0.5 28 8.6 ESE 15 24 8 13 1025.8 1025.6 0.0
27/02:00pm 19.3 14.6 0.8 29 8.5 SE 15 26 8 14 1025.6 1025.3 0.0
27/01:30pm 19.0 14.0 1.5 31 8.1 ESE 17 24 9 13 1026.2 1026.0 0.0
27/01:00pm 18.2 12.9 1.7 33 7.6 ESE 19 26 10 14 1026.5 1026.3 0.0
27/12:30pm 17.3 12.4 1.7 35 7.1 ESE 17 24 9 13 1027.0 1026.8 0.0
27/12:00pm 17.0 12.4 1.8 36 6.9 ESE 15 22 8 12 1027.4 1027.3 0.0
27/11:30am 16.2 11.3 2.2 39 6.4 ESE 17 26 9 14 1027.8 1027.6 0.0

Other Formats:

Comma delimited format used in spreadsheet applications
http://www.bom.gov.au/fwo/IDD60801/IDD60801.94462.axf

JavaScript Object Notation format (JSON) in row-major order
http://www.bom.gov.au/fwo/IDD60801/IDD60801.94462.json